Terminal Aerodrome Forecast
Issued by NWS

Home | Current Version | Previous Version | Text Only | Print | Product List | Glossary On
Versions: 1 2 3 4 5 6 7 8 9 10 11 12 13 14 15 16 17 18 19 20 21 22 23 24 25
000
FTUS43 KABR 291733
TAFPIR
TAF
KPIR 291733Z 2918/3018 08013KT P6SM BKN035 BKN045
     FM300800 04012KT P6SM VCSH OVC080
     FM301100 04015G25KT P6SM OVC200=

USA.gov is the U.S. government's official web portal to all federal, state and local government web resources and services.